createdAt,value
2022-11-04T00:00:33.423Z,14.25
2022-11-04T00:03:00.247Z,14.68
2022-11-04T00:05:26.991Z,14.83
2022-11-04T00:08:12.282Z,14.86
2022-11-04T00:10:57.588Z,14.54
2022-11-04T00:13:24.329Z,14.25
2022-11-04T00:16:09.576Z,14.34
2022-11-04T00:18:36.324Z,14.38
2022-11-04T00:21:21.689Z,14.31
2022-11-04T00:24:06.913Z,14.48
2022-11-04T00:26:52.148Z,14.22
2022-11-04T00:29:18.893Z,14.18
2022-11-04T00:32:04.029Z,14.27
2022-11-04T00:34:30.771Z,14.11
2022-11-04T00:36:57.546Z,13.99
2022-11-04T00:39:24.295Z,13.70
2022-11-04T00:41:51.152Z,13.90
2022-11-04T00:44:17.960Z,13.80
2022-11-04T00:46:44.866Z,13.89
2022-11-04T00:49:12.924Z,13.52
2022-11-04T00:51:39.905Z,13.68
2022-11-04T00:54:06.763Z,13.42
2022-11-04T00:56:33.907Z,13.47
2022-11-04T00:59:00.794Z,13.07
2022-11-04T01:01:27.676Z,13.50
2022-11-04T01:03:54.791Z,13.53
2022-11-04T01:06:23.596Z,13.62
2022-11-04T01:08:56.377Z,13.58
2022-11-04T01:11:23.417Z,13.69
2022-11-04T01:13:51.605Z,13.20
2022-11-04T01:16:19.359Z,13.22
2022-11-04T01:18:46.647Z,13.23
2022-11-04T01:21:15.280Z,13.21
2022-11-04T01:23:43.983Z,13.29
2022-11-04T01:26:16.549Z,13.18
2022-11-04T01:28:43.566Z,13.19
2022-11-04T01:31:12.627Z,13.04
2022-11-04T01:33:39.632Z,12.91
2022-11-04T01:36:07.771Z,13.33
2022-11-04T01:38:34.859Z,13.04
2022-11-04T01:41:02.291Z,12.63
2022-11-04T01:43:44.326Z,13.07
2022-11-04T01:46:19.846Z,12.89
2022-11-04T01:48:47.167Z,13.06
2022-11-04T01:51:14.953Z,12.89
2022-11-04T01:53:44.071Z,12.58
2022-11-04T01:56:14.485Z,12.75
2022-11-04T01:58:47.241Z,12.64
2022-11-04T02:01:14.221Z,12.67
2022-11-04T02:03:48.966Z,12.68
2022-11-04T02:06:18.515Z,12.54
2022-11-04T02:08:46.479Z,12.59
2022-11-04T02:11:33.213Z,13.05
2022-11-04T02:14:01.064Z,12.72
2022-11-04T02:16:47.219Z,12.93
2022-11-04T02:19:32.756Z,13.03
2022-11-04T02:22:18.168Z,13.20
2022-11-04T02:25:18.949Z,13.29
2022-11-04T02:28:03.654Z,12.89
2022-11-04T02:30:50.440Z,12.54
2022-11-04T02:33:32.318Z,12.61
2022-11-04T02:36:04.915Z,12.60
2022-11-04T02:38:51.959Z,13.04
2022-11-04T02:41:43.115Z,12.96
2022-11-04T02:44:29.959Z,13.02
2022-11-04T02:47:06.501Z,13.42
2022-11-04T02:49:51.864Z,13.06
2022-11-04T02:52:51.501Z,13.18
2022-11-04T02:55:45.785Z,12.86
2022-11-04T02:58:23.627Z,12.74
2022-11-04T03:00:55.048Z,12.72
2022-11-04T03:03:27.069Z,13.00
2022-11-04T03:05:58.312Z,13.18
2022-11-04T03:08:33.550Z,12.84
2022-11-04T03:11:10.172Z,13.12
2022-11-04T03:13:42.470Z,13.03
2022-11-04T03:16:17.404Z,13.38
2022-11-04T03:19:05.039Z,13.25
2022-11-04T03:21:37.104Z,12.75
2022-11-04T03:24:05.400Z,13.24
2022-11-04T03:26:58.298Z,13.42
2022-11-04T03:29:39.653Z,12.88
2022-11-04T03:32:23.073Z,13.13
2022-11-04T03:34:50.655Z,12.94
2022-11-04T03:37:17.844Z,12.80
2022-11-04T03:39:44.888Z,12.65
2022-11-04T03:42:23.088Z,13.06
2022-11-04T03:44:55.190Z,12.80
2022-11-04T03:47:27.046Z,12.89
2022-11-04T03:50:03.958Z,12.85
2022-11-04T03:52:31.458Z,12.80
2022-11-04T03:54:58.209Z,13.19
2022-11-04T03:57:50.848Z,12.68
2022-11-04T04:00:20.980Z,13.15
2022-11-04T04:03:03.069Z,13.09
2022-11-04T04:05:33.277Z,13.05
2022-11-04T04:08:09.453Z,13.46
2022-11-04T04:10:42.538Z,13.21
2022-11-04T04:13:23.682Z,13.38
2022-11-04T04:16:01.121Z,13.24
2022-11-04T04:18:39.037Z,13.12
2022-11-04T04:21:09.461Z,13.20
2022-11-04T04:23:56.385Z,13.14
2022-11-04T04:26:44.187Z,12.88
2022-11-04T04:29:11.582Z,12.48
2022-11-04T04:31:49.770Z,12.96
2022-11-04T04:34:20.161Z,12.94
2022-11-04T04:37:30.213Z,12.83
2022-11-04T04:40:24.705Z,13.14
2022-11-04T04:43:13.196Z,12.70
2022-11-04T04:45:43.025Z,12.83
2022-11-04T04:48:13.255Z,12.56
2022-11-04T04:50:45.371Z,12.40
2022-11-04T04:53:12.614Z,12.60
2022-11-04T04:55:41.710Z,12.55
2022-11-04T04:58:09.400Z,12.23
2022-11-04T05:00:36.184Z,12.15
2022-11-04T05:03:02.988Z,12.39
2022-11-04T05:05:29.799Z,12.54
2022-11-04T05:08:05.210Z,12.03
2022-11-04T05:10:32.035Z,12.07
2022-11-04T05:13:19.505Z,11.96
2022-11-04T05:15:46.333Z,12.11
2022-11-04T05:18:13.129Z,12.04
2022-11-04T05:20:40.354Z,11.69
2022-11-04T05:23:08.198Z,12.40
2022-11-04T05:25:35.102Z,12.80
2022-11-04T05:28:02.377Z,12.94
2022-11-04T05:30:29.688Z,12.24
2022-11-04T05:32:59.970Z,12.39
2022-11-04T05:35:30.664Z,12.50
2022-11-04T05:37:57.710Z,12.30
2022-11-04T05:40:24.959Z,12.13
2022-11-04T05:42:51.807Z,12.40
2022-11-04T05:45:18.726Z,12.37
2022-11-04T05:47:45.536Z,12.13
2022-11-04T05:50:12.335Z,12.17
2022-11-04T05:52:39.226Z,12.00
2022-11-04T05:55:06.595Z,12.17
2022-11-04T05:57:33.354Z,12.27
2022-11-04T06:00:00.146Z,12.25
2022-11-04T06:02:27.027Z,12.36
2022-11-04T06:04:54.013Z,12.34
2022-11-04T06:07:20.861Z,12.01
2022-11-04T06:09:47.676Z,12.73
2022-11-04T06:12:15.808Z,12.20
2022-11-04T06:14:44.261Z,11.88
2022-11-04T06:17:19.448Z,12.19
2022-11-04T06:19:46.679Z,12.65
2022-11-04T06:22:15.355Z,12.54
2022-11-04T06:24:42.705Z,12.22
2022-11-04T06:27:10.286Z,12.14
2022-11-04T06:29:40.168Z,12.07
2022-11-04T06:32:12.562Z,12.11
2022-11-04T06:34:39.778Z,12.11
2022-11-04T06:37:07.227Z,12.15
2022-11-04T06:39:34.507Z,12.01
2022-11-04T06:42:02.909Z,11.68
2022-11-04T06:44:30.792Z,11.80
2022-11-04T06:46:57.863Z,11.92
2022-11-04T06:49:24.730Z,12.06
2022-11-04T06:51:52.117Z,12.06
2022-11-04T06:54:19.243Z,12.09
2022-11-04T06:56:46.205Z,11.71
2022-11-04T06:59:16.738Z,11.77
2022-11-04T07:01:43.786Z,11.77
2022-11-04T07:04:10.732Z,11.69
2022-11-04T07:06:39.813Z,11.73
2022-11-04T07:09:12.115Z,12.18
2022-11-04T07:11:39.308Z,12.03
2022-11-04T07:14:06.233Z,11.98
2022-11-04T07:16:33.007Z,12.25
2022-11-04T07:18:59.793Z,12.40
2022-11-04T07:21:26.690Z,12.24
2022-11-04T07:23:53.692Z,12.43
2022-11-04T07:26:20.481Z,12.04
2022-11-04T07:28:47.450Z,11.77
2022-11-04T07:31:15.261Z,11.80
2022-11-04T07:33:42.318Z,11.60
2022-11-04T07:36:12.883Z,11.67
2022-11-04T07:38:39.661Z,12.01
2022-11-04T07:41:06.633Z,11.90
2022-11-04T07:43:33.437Z,11.98
2022-11-04T07:46:06.666Z,12.29
2022-11-04T07:48:33.609Z,12.26
2022-11-04T07:51:01.447Z,12.31
2022-11-04T07:53:30.253Z,12.35
2022-11-04T07:55:57.861Z,12.23
2022-11-04T07:58:25.703Z,12.44
2022-11-04T08:01:01.453Z,12.28
2022-11-04T08:03:28.345Z,12.53
2022-11-04T08:05:59.924Z,12.61
2022-11-04T08:08:27.944Z,11.92
2022-11-04T08:11:00.482Z,12.04
2022-11-04T08:13:29.328Z,12.17
2022-11-04T08:15:57.055Z,12.44
2022-11-04T08:18:24.091Z,12.34
2022-11-04T08:20:52.146Z,12.25
2022-11-04T08:23:19.765Z,12.38
2022-11-04T08:25:46.677Z,12.67
2022-11-04T08:28:17.576Z,12.41
2022-11-04T08:30:56.392Z,12.56
2022-11-04T08:33:25.177Z,12.65
2022-11-04T08:35:52.714Z,12.34
2022-11-04T08:38:19.763Z,12.20
2022-11-04T08:40:46.883Z,12.38
2022-11-04T08:43:13.767Z,12.18
2022-11-04T08:45:43.017Z,12.08
2022-11-04T08:48:10.275Z,12.02
2022-11-04T08:50:37.726Z,12.53
2022-11-04T08:53:05.201Z,12.14
2022-11-04T08:55:32.980Z,12.21
2022-11-04T08:58:01.695Z,12.13
2022-11-04T09:00:28.581Z,12.41
2022-11-04T09:02:55.700Z,12.33
2022-11-04T09:05:23.161Z,12.44
2022-11-04T09:07:50.172Z,12.25
2022-11-04T09:10:17.689Z,11.96
2022-11-04T09:12:45.173Z,12.16
2022-11-04T09:15:12.546Z,12.36
2022-11-04T09:17:40.486Z,12.61
2022-11-04T09:20:07.837Z,12.23
2022-11-04T09:22:34.632Z,12.73
2022-11-04T09:25:01.680Z,13.09
2022-11-04T09:27:28.437Z,13.35
2022-11-04T09:29:55.209Z,13.53
2022-11-04T09:32:22.005Z,13.24
2022-11-04T09:34:48.842Z,12.87
2022-11-04T09:37:16.115Z,12.95
2022-11-04T09:39:42.965Z,13.20
2022-11-04T09:42:21.852Z,13.19
2022-11-04T09:45:21.243Z,13.10
2022-11-04T09:47:53.102Z,13.21
2022-11-04T09:50:49.290Z,13.05
2022-11-04T09:53:24.085Z,13.10
2022-11-04T09:55:57.497Z,13.20
2022-11-04T09:58:24.605Z,13.02
2022-11-04T10:01:04.890Z,13.13
2022-11-04T10:03:50.393Z,13.04
2022-11-04T10:06:33.371Z,13.03
2022-11-04T10:09:00.095Z,13.19
2022-11-04T10:11:42.431Z,13.46
2022-11-04T10:14:25.020Z,13.07
2022-11-04T10:17:02.409Z,13.25
2022-11-04T10:19:52.024Z,12.93
2022-11-04T10:22:32.225Z,13.04
2022-11-04T10:25:25.651Z,13.52
2022-11-04T10:27:52.844Z,13.24
2022-11-04T10:30:22.453Z,13.45
2022-11-04T10:33:16.992Z,13.73
2022-11-04T10:36:01.648Z,13.33
2022-11-04T10:39:00.554Z,13.76
2022-11-04T10:41:34.653Z,13.41
2022-11-04T10:44:26.036Z,14.16
2022-11-04T10:46:55.772Z,14.18
2022-11-04T10:49:54.744Z,14.50
2022-11-04T10:52:27.812Z,14.04
2022-11-04T10:54:54.665Z,14.17
2022-11-04T10:57:25.043Z,13.30
2022-11-04T10:59:53.933Z,13.77
2022-11-04T11:02:45.680Z,14.13
2022-11-04T11:05:18.881Z,14.37
2022-11-04T11:07:48.308Z,14.25
2022-11-04T11:10:30.787Z,14.46
2022-11-04T11:13:04.736Z,14.66
2022-11-04T11:15:38.115Z,14.66
2022-11-04T11:18:08.117Z,14.77
2022-11-04T11:20:37.904Z,15.13
2022-11-04T11:23:09.625Z,14.63
2022-11-04T11:25:45.220Z,14.98
2022-11-04T11:28:23.572Z,15.10
2022-11-04T11:30:58.609Z,15.05
2022-11-04T11:33:28.491Z,15.70
2022-11-04T11:36:11.952Z,15.90
2022-11-04T11:38:57.256Z,15.49
2022-11-04T11:41:31.357Z,15.45
2022-11-04T11:44:02.202Z,15.24
2022-11-04T11:46:32.025Z,14.94
2022-11-04T11:49:01.542Z,14.36
2022-11-04T11:51:34.717Z,14.59
2022-11-04T11:54:13.822Z,14.11
2022-11-04T11:57:12.023Z,14.09
2022-11-04T12:02:52.159Z,14.24
2022-11-04T12:11:28.325Z,13.78
2022-11-04T12:14:05.870Z,13.45
2022-11-04T12:16:35.584Z,13.31
2022-11-04T12:19:34.751Z,13.90
2022-11-04T12:22:18.371Z,14.15
2022-11-04T12:25:05.345Z,14.43
2022-11-04T12:27:52.445Z,13.78
2022-11-04T12:30:32.313Z,13.41
2022-11-04T12:33:11.680Z,14.38
2022-11-04T12:35:50.774Z,14.73
2022-11-04T12:38:43.032Z,14.45
2022-11-04T12:44:15.829Z,14.83
2022-11-04T12:46:54.810Z,14.39
2022-11-04T12:49:49.628Z,14.61
2022-11-04T12:52:43.499Z,14.68
2022-11-04T12:55:44.099Z,14.91
2022-11-04T12:58:30.128Z,14.51
2022-11-04T13:01:36.488Z,14.40
2022-11-04T13:04:10.458Z,14.54
2022-11-04T13:06:46.130Z,14.21
2022-11-04T13:09:36.615Z,14.50
2022-11-04T13:12:30.192Z,14.31
2022-11-04T13:15:07.984Z,14.10
2022-11-04T13:17:39.728Z,14.49
2022-11-04T13:20:17.351Z,14.95
2022-11-04T13:22:48.666Z,14.67
2022-11-04T13:25:31.022Z,14.68
2022-11-04T13:27:59.064Z,14.81
2022-11-04T13:30:49.996Z,14.94
2022-11-04T13:33:41.615Z,15.13
2022-11-04T13:36:48.772Z,15.24
2022-11-04T13:39:35.668Z,15.35
2022-11-04T13:42:02.462Z,15.71
2022-11-04T13:44:38.684Z,15.72
2022-11-04T13:47:17.940Z,15.64
2022-11-04T13:49:55.402Z,15.83
2022-11-04T13:52:29.366Z,15.73
2022-11-04T13:55:02.929Z,16.35
2022-11-04T13:57:51.443Z,16.37
2022-11-04T14:00:24.876Z,15.96
2022-11-04T14:02:58.118Z,16.28
2022-11-04T14:05:28.268Z,16.05
2022-11-04T14:08:03.552Z,15.70
2022-11-04T14:10:49.893Z,15.91
2022-11-04T14:13:33.438Z,16.00
2022-11-04T14:16:24.763Z,16.21
2022-11-04T14:18:53.718Z,15.98
2022-11-04T14:21:23.411Z,15.85
2022-11-04T14:24:02.943Z,16.05
2022-11-04T14:26:45.803Z,16.19
2022-11-04T14:29:41.009Z,16.37
2022-11-04T14:32:12.762Z,16.28
2022-11-04T14:34:41.043Z,16.04
2022-11-04T14:37:28.660Z,16.19
2022-11-04T14:40:00.464Z,15.81
2022-11-04T14:42:50.158Z,15.84
2022-11-04T14:45:27.018Z,15.55
2022-11-04T14:48:20.253Z,15.53
2022-11-04T14:50:51.672Z,15.86
2022-11-04T14:53:36.806Z,15.81
2022-11-04T14:56:21.994Z,15.34
2022-11-04T14:59:03.276Z,15.38
2022-11-04T15:01:34.944Z,15.48
2022-11-04T15:04:14.463Z,15.28
2022-11-04T15:06:54.339Z,15.20
2022-11-04T15:09:28.991Z,14.84
2022-11-04T15:12:32.172Z,14.97
2022-11-04T15:14:59.958Z,14.99
2022-11-04T15:17:29.742Z,14.91
2022-11-04T15:20:00.298Z,15.03
2022-11-04T15:22:29.258Z,14.67
2022-11-04T15:24:59.483Z,14.24
2022-11-04T15:27:29.864Z,14.32
2022-11-04T15:30:03.113Z,14.40
2022-11-04T15:32:30.143Z,14.34
2022-11-04T15:34:57.827Z,14.46
2022-11-04T15:37:26.546Z,14.42
2022-11-04T15:39:57.674Z,14.47
2022-11-04T15:42:37.090Z,14.49
2022-11-04T15:45:22.337Z,14.62
2022-11-04T15:47:49.798Z,14.68
2022-11-04T15:50:23.502Z,14.45
2022-11-04T15:52:55.885Z,14.22
2022-11-04T15:55:27.348Z,14.23
2022-11-04T15:57:56.137Z,14.41
2022-11-04T16:00:29.039Z,14.02
2022-11-04T16:03:01.071Z,13.99
2022-11-04T16:05:38.089Z,14.06
2022-11-04T16:08:22.802Z,13.52
2022-11-04T16:10:51.332Z,13.96
2022-11-04T16:13:18.137Z,14.00
2022-11-04T16:16:20.395Z,13.94
2022-11-04T16:18:55.731Z,13.62
2022-11-04T16:21:30.539Z,13.53
2022-11-04T16:24:18.602Z,13.40
2022-11-04T16:26:46.539Z,13.47
2022-11-04T16:29:27.331Z,13.46
2022-11-04T16:32:23.942Z,13.54
2022-11-04T16:34:53.904Z,13.47
2022-11-04T16:37:21.007Z,13.43
2022-11-04T16:39:49.917Z,13.02
2022-11-04T16:42:17.644Z,12.96
2022-11-04T16:44:55.605Z,12.89
2022-11-04T16:47:22.703Z,12.82
2022-11-04T16:49:49.464Z,12.60
2022-11-04T16:52:23.002Z,12.49
2022-11-04T16:54:49.865Z,12.50
2022-11-04T16:57:17.102Z,12.46
2022-11-04T16:59:44.092Z,12.43
2022-11-04T17:02:23.256Z,12.22
2022-11-04T17:04:50.029Z,12.55
2022-11-04T17:07:16.882Z,12.66
2022-11-04T17:09:43.990Z,12.55
2022-11-04T17:12:10.887Z,12.37
2022-11-04T17:14:37.792Z,12.33
2022-11-04T17:17:05.063Z,12.24
2022-11-04T17:19:34.836Z,12.52
2022-11-04T17:22:04.248Z,12.41
2022-11-04T17:24:31.057Z,12.39
2022-11-04T17:26:57.913Z,12.42
2022-11-04T17:29:24.996Z,12.52
2022-11-04T17:31:55.688Z,12.41
2022-11-04T17:34:25.760Z,12.47
2022-11-04T17:36:53.562Z,12.55
2022-11-04T17:39:20.465Z,12.49
2022-11-04T17:42:06.055Z,12.41
2022-11-04T17:44:32.815Z,12.26
2022-11-04T17:47:00.924Z,12.17
2022-11-04T17:49:28.672Z,12.20
2022-11-04T17:51:58.210Z,12.06
2022-11-04T17:54:26.846Z,11.90
2022-11-04T17:56:53.640Z,11.80
2022-11-04T17:59:20.530Z,11.86
2022-11-04T18:01:47.788Z,11.44
2022-11-04T18:04:23.370Z,11.59
2022-11-04T18:06:51.008Z,11.75
2022-11-04T18:09:18.106Z,11.83
2022-11-04T18:12:04.461Z,11.89
2022-11-04T18:14:31.539Z,12.03
2022-11-04T18:16:58.521Z,12.01
2022-11-04T18:19:26.405Z,12.01
2022-11-04T18:21:53.332Z,11.92
2022-11-04T18:24:20.469Z,11.76
2022-11-04T18:26:47.351Z,11.62
2022-11-04T18:29:14.258Z,11.57
2022-11-04T18:31:48.601Z,11.56
2022-11-04T18:34:19.217Z,11.47
2022-11-04T18:36:47.649Z,11.59
2022-11-04T18:39:16.727Z,11.65
2022-11-04T18:41:43.941Z,11.60
2022-11-04T18:44:16.383Z,11.73
2022-11-04T18:46:43.826Z,11.63
2022-11-04T18:49:11.866Z,11.57
2022-11-04T18:51:39.190Z,11.39
2022-11-04T18:54:07.806Z,11.58
2022-11-04T18:56:35.320Z,11.60
2022-11-04T18:59:02.911Z,11.42
2022-11-04T19:01:33.164Z,11.43
2022-11-04T19:04:01.066Z,11.54
2022-11-04T19:06:30.803Z,11.46
2022-11-04T19:09:05.113Z,11.47
2022-11-04T19:11:38.554Z,11.46
2022-11-04T19:14:10.870Z,11.32
2022-11-04T19:16:39.032Z,11.48
2022-11-04T19:19:08.675Z,11.55
2022-11-04T19:21:35.737Z,11.31
2022-11-04T19:24:05.740Z,11.43
2022-11-04T19:26:35.416Z,11.43
2022-11-04T19:29:05.757Z,11.26
2022-11-04T19:31:33.399Z,11.08
2022-11-04T19:34:05.755Z,11.23
2022-11-04T19:36:34.073Z,11.15
2022-11-04T19:39:01.292Z,10.96
2022-11-04T19:41:47.095Z,11.27
2022-11-04T19:44:16.386Z,11.00
2022-11-04T19:46:43.713Z,10.99
2022-11-04T19:49:12.484Z,10.99
2022-11-04T19:51:39.635Z,11.18
2022-11-04T19:54:06.795Z,10.99
2022-11-04T19:56:34.343Z,11.11
2022-11-04T19:59:05.796Z,11.04
2022-11-04T20:01:34.941Z,11.05
2022-11-04T20:04:03.007Z,10.79
2022-11-04T20:06:32.154Z,10.64
2022-11-04T20:09:05.435Z,10.91
2022-11-04T20:11:57.351Z,10.89
2022-11-04T20:14:24.357Z,10.91
2022-11-04T20:16:51.235Z,10.95
2022-11-04T20:19:22.603Z,10.91
2022-11-04T20:21:50.625Z,10.67
2022-11-04T20:24:17.429Z,10.74
2022-11-04T20:26:44.442Z,10.66
2022-11-04T20:29:11.678Z,10.53
2022-11-04T20:31:39.703Z,10.51
2022-11-04T20:34:08.449Z,10.43
2022-11-04T20:36:36.711Z,10.48
2022-11-04T20:39:10.090Z,10.45
2022-11-04T20:41:36.880Z,10.48
2022-11-04T20:44:04.189Z,10.39
2022-11-04T20:46:34.543Z,10.30
2022-11-04T20:49:03.042Z,10.27
2022-11-04T20:51:32.553Z,10.28
2022-11-04T20:54:01.114Z,10.12
2022-11-04T20:56:34.126Z,10.26
2022-11-04T20:59:01.885Z,10.33
2022-11-04T21:01:31.836Z,10.21
2022-11-04T21:04:07.553Z,9.99
2022-11-04T21:06:38.834Z,10.09
2022-11-04T21:09:08.313Z,10.08
2022-11-04T21:11:35.879Z,9.84
2022-11-04T21:14:04.334Z,9.70
2022-11-04T21:16:31.360Z,9.81
2022-11-04T21:18:58.523Z,9.95
2022-11-04T21:21:28.309Z,9.95
2022-11-04T21:23:59.475Z,9.86
2022-11-04T21:26:28.558Z,9.92
2022-11-04T21:28:57.692Z,9.87
2022-11-04T21:31:25.801Z,9.68
2022-11-04T21:33:53.359Z,9.81
2022-11-04T21:36:20.459Z,9.69
2022-11-04T21:38:47.226Z,9.77
2022-11-04T21:41:19.472Z,9.86
2022-11-04T21:43:46.229Z,9.65
2022-11-04T21:46:15.497Z,9.68
2022-11-04T21:48:43.067Z,9.63
2022-11-04T21:51:13.319Z,9.58
2022-11-04T21:53:41.041Z,9.64
2022-11-04T21:56:09.653Z,9.95
2022-11-04T21:58:37.218Z,9.92
2022-11-04T22:01:07.053Z,9.89
2022-11-04T22:03:34.409Z,9.83
2022-11-04T22:06:03.437Z,9.88
2022-11-04T22:08:31.696Z,9.95
2022-11-04T22:11:10.144Z,9.99
2022-11-04T22:13:37.107Z,10.12
2022-11-04T22:16:15.829Z,9.74
2022-11-04T22:18:43.493Z,9.90
2022-11-04T22:21:13.349Z,9.83
2022-11-04T22:23:40.175Z,9.89
2022-11-04T22:26:11.190Z,9.73
2022-11-04T22:28:37.964Z,9.98
2022-11-04T22:31:17.204Z,10.07
2022-11-04T22:33:44.619Z,10.07
2022-11-04T22:36:12.740Z,10.03
2022-11-04T22:38:41.037Z,9.99
2022-11-04T22:41:12.841Z,9.82
2022-11-04T22:43:40.214Z,9.97
2022-11-04T22:46:11.602Z,10.13
2022-11-04T22:48:38.389Z,10.11
2022-11-04T22:51:06.935Z,10.09
2022-11-04T22:53:33.734Z,10.03
2022-11-04T22:56:02.082Z,10.17
2022-11-04T22:58:29.858Z,10.26
2022-11-04T23:01:03.488Z,10.17
2022-11-04T23:03:30.769Z,10.45
2022-11-04T23:05:59.945Z,10.57
2022-11-04T23:08:28.523Z,10.55
2022-11-04T23:11:23.437Z,10.62
2022-11-04T23:14:15.620Z,10.73
2022-11-04T23:17:05.681Z,10.64
2022-11-04T23:19:32.534Z,10.44
2022-11-04T23:22:17.732Z,10.28
2022-11-04T23:25:03.013Z,10.49
2022-11-04T23:27:48.895Z,10.28
2022-11-04T23:30:22.249Z,10.29
2022-11-04T23:32:50.671Z,10.42
2022-11-04T23:35:37.311Z,10.45
2022-11-04T23:38:04.793Z,10.45
2022-11-04T23:40:32.766Z,10.30
2022-11-04T23:42:59.527Z,10.37
2022-11-04T23:45:44.820Z,10.31
2022-11-04T23:48:31.184Z,10.27
2022-11-04T23:51:18.806Z,10.11
2022-11-04T23:54:04.688Z,10.11
2022-11-04T23:56:50.447Z,10.33
2022-11-04T23:59:37.378Z,10.36
